Shin Puropan Maru — JG5508 — position and weather

sailwx.info

Track history (hours):
 
Tides and Currents Weather Stations Pressure Air Temp Water Temp Dewpoint Dewpoint Depression Visibility Wind Speed Wind Dir Waves Ship Positions

Shin Puropan Maru

Last reported at 2014-Oct-22 04:20 UTC. Time now 2014-Oct-22 09:50 UTC.
Position N 35°33' E 139°59'.

Length 66 m; draft 3.6 m.

Type: Ship (hazmat cat A). MMSI: 431100348.

Date/timePositionNaut miles runAvg speedWind from/ knotsBaromVisibWave heightAir tempDewpointWater temp
2014-Oct-22 04:20N 35°33' E 139°59'911.8
2014-Oct-22 03:33N 35°28' E 139°50'8 7.8
2014-Oct-22 02:33N 35°28' E 139°40'0 0.0
2014-Oct-22 01:33N 35°28' E 139°40'0 0.0
2014-Oct-22 00:33N 35°28' E 139°40'0 0.0
2014-Oct-21 23:33N 35°28' E 139°40'2 1.7
2014-Oct-21 22:34N 35°27' E 139°42'2 2.2
2014-Oct-21 21:32N 35°28' E 139°44'0 0.1
2014-Oct-21 20:32N 35°28' E 139°44'0 0.0
2014-Oct-21 19:32N 35°28' E 139°44'0 0.0
2014-Oct-21 18:23N 35°28' E 139°44'0 0.0
2014-Oct-21 17:32N 35°28' E 139°44'0 0.0
2014-Oct-21 16:32N 35°28' E 139°44'0 0.0
2014-Oct-21 15:32N 35°28' E 139°44'0 0.0
2014-Oct-21 14:32N 35°28' E 139°44'0 0.0
2014-Oct-21 13:26N 35°28' E 139°44'0 0.0
2014-Oct-21 12:32N 35°28' E 139°44'0 0.0
2014-Oct-21 11:23N 35°28' E 139°44'0 0.0
2014-Oct-21 10:32N 35°28' E 139°44'0 0.0
2014-Oct-21 09:29N 35°28' E 139°44'0 0.1
2014-Oct-21 08:32N 35°28' E 139°44'0 0.0
2014-Oct-21 07:20N 35°28' E 139°44'0 0.0
2014-Oct-21 06:32N 35°28' E 139°44'0 0.0
2014-Oct-21 05:20N 35°28' E 139°44'0 0.0
2014-Oct-21 04:33N 35°28' E 139°44'9 0.7
2014-Oct-20 14:32N 35°30' E 139°55'9 8.8
2014-Oct-20 13:33N 35°25' E 139°46'1211.5
2014-Oct-20 12:33N 35°13' E 139°47'246 9.8
2014-Oct-19 11:32N 34°07' E 134°59'1212.0
2014-Oct-19 10:33N 34°19' E 134°59'1212.1
2014-Oct-19 09:33N 34°30' E 135°02'7 7.1
2014-Oct-19 08:33N 34°36' E 134°57'3 0.1
2014-Oct-17 12:31N 34°36' E 134°54'1010.6
2014-Oct-17 11:33N 34°36' E 135°06'1312.8
2014-Oct-17 10:32N 34°36' E 135°22'3 0.7
2014-Oct-17 06:31N 34°36' E 135°25'2 1.6
2014-Oct-17 05:33N 34°35' E 135°23'0 0.2
2014-Oct-17 04:33N 34°35' E 135°23'2 0.4
2014-Oct-16 23:33N 34°33' E 135°25'5 4.8
2014-Oct-16 22:28N 34°33' E 135°18'0 0.0
2014-Oct-16 21:28N 34°33' E 135°18'0 0.0
2014-Oct-16 20:28N 34°33' E 135°18'0 0.0
2014-Oct-16 19:22N 34°33' E 135°18'0 0.0
2014-Oct-16 18:28N 34°33' E 135°18'0 0.0
2014-Oct-16 17:22N 34°33' E 135°18'0 0.0
2014-Oct-16 16:28N 34°33' E 135°18'0 0.0
2014-Oct-16 15:28N 34°33' E 135°18'0 0.0
2014-Oct-16 14:28N 34°33' E 135°18'0 0.1
2014-Oct-16 13:28N 34°33' E 135°19'0 0.0
2014-Oct-16 12:16N 34°33' E 135°19'0 0.1
2014-Oct-16 11:28N 34°33' E 135°18'0 0.0
2014-Oct-16 10:28N 34°33' E 135°18'0 0.0
2014-Oct-16 08:28N 34°33' E 135°18'0 0.0
2014-Oct-16 07:28N 34°33' E 135°18'3 3.6
2014-Oct-16 06:33N 34°36' E 135°19'5 5.1
2014-Oct-16 05:33N 34°35' E 135°25'0 0.1
2014-Oct-16 02:24N 34°34' E 135°26'1 1.0
2014-Oct-16 01:33N 34°35' E 135°25'2 2.0
2014-Oct-16 00:33N 34°35' E 135°23'0 0.0
2014-Oct-15 22:32N 34°35' E 135°23'0 0.1
2014-Oct-15 21:32N 34°35' E 135°23'0 0.0
2014-Oct-15 20:32N 34°35' E 135°23'0 0.0
2014-Oct-15 19:32N 34°35' E 135°23'0 0.0
2014-Oct-15 18:26N 34°35' E 135°23'0 0.0
2014-Oct-15 17:32N 34°35' E 135°23'0 0.0
2014-Oct-15 16:26N 34°35' E 135°23'0 0.0
2014-Oct-15 15:20N 34°35' E 135°23'0 0.0
2014-Oct-15 14:32N 34°35' E 135°23'0 0.0
2014-Oct-15 13:32N 34°35' E 135°23'0 0.0
2014-Oct-15 12:32N 34°35' E 135°23'0 0.0
2014-Oct-15 11:32N 34°35' E 135°23'0 0.0
2014-Oct-15 10:32N 34°35' E 135°23'0 0.0
2014-Oct-15 09:32N 34°35' E 135°23'5 5.0
2014-Oct-15 08:33N 34°32' E 135°18'1211.9
2014-Oct-15 07:33N 34°24' E 135°07'1211.1
2014-Oct-15 06:29N 34°15' E 134°59'  
Track history (hours):
 
Tides and Currents Weather Stations Pressure Air Temp Water Temp Dewpoint Dewpoint Depression Visibility Wind Speed Wind Dir Waves Ship Positions

Shin Puropan Maru

Last reported at 2014-Oct-22 04:20 UTC. Time now 2014-Oct-22 09:50 UTC.
Position N 35°33' E 139°59'.

Length 66 m; draft 3.6 m.

Type: Ship (hazmat cat A). MMSI: 431100348.

Date/timePositionNaut miles runAvg speedWind from/ knotsBaromVisibWave heightAir tempDewpointWater temp
2014-Oct-22 04:20N 35°33' E 139°59'911.8
2014-Oct-22 03:33N 35°28' E 139°50'8 7.8
2014-Oct-22 02:33N 35°28' E 139°40'0 0.0
2014-Oct-22 01:33N 35°28' E 139°40'0 0.0
2014-Oct-22 00:33N 35°28' E 139°40'0 0.0
2014-Oct-21 23:33N 35°28' E 139°40'2 1.7
2014-Oct-21 22:34N 35°27' E 139°42'2 2.2
2014-Oct-21 21:32N 35°28' E 139°44'0 0.1
2014-Oct-21 20:32N 35°28' E 139°44'0 0.0
2014-Oct-21 19:32N 35°28' E 139°44'0 0.0
2014-Oct-21 18:23N 35°28' E 139°44'0 0.0
2014-Oct-21 17:32N 35°28' E 139°44'0 0.0
2014-Oct-21 16:32N 35°28' E 139°44'0 0.0
2014-Oct-21 15:32N 35°28' E 139°44'0 0.0
2014-Oct-21 14:32N 35°28' E 139°44'0 0.0
2014-Oct-21 13:26N 35°28' E 139°44'0 0.0
2014-Oct-21 12:32N 35°28' E 139°44'0 0.0
2014-Oct-21 11:23N 35°28' E 139°44'0 0.0
2014-Oct-21 10:32N 35°28' E 139°44'0 0.0
2014-Oct-21 09:29N 35°28' E 139°44'0 0.1
2014-Oct-21 08:32N 35°28' E 139°44'0 0.0
2014-Oct-21 07:20N 35°28' E 139°44'0 0.0
2014-Oct-21 06:32N 35°28' E 139°44'0 0.0
2014-Oct-21 05:20N 35°28' E 139°44'0 0.0
2014-Oct-21 04:33N 35°28' E 139°44'9 0.7
2014-Oct-20 14:32N 35°30' E 139°55'9 8.8
2014-Oct-20 13:33N 35°25' E 139°46'1211.5
2014-Oct-20 12:33N 35°13' E 139°47'246 9.8
2014-Oct-19 11:32N 34°07' E 134°59'1212.0
2014-Oct-19 10:33N 34°19' E 134°59'1212.1
2014-Oct-19 09:33N 34°30' E 135°02'7 7.1
2014-Oct-19 08:33N 34°36' E 134°57'3 0.1
2014-Oct-17 12:31N 34°36' E 134°54'1010.6
2014-Oct-17 11:33N 34°36' E 135°06'1312.8
2014-Oct-17 10:32N 34°36' E 135°22'3 0.7
2014-Oct-17 06:31N 34°36' E 135°25'2 1.6
2014-Oct-17 05:33N 34°35' E 135°23'0 0.2
2014-Oct-17 04:33N 34°35' E 135°23'2 0.4
2014-Oct-16 23:33N 34°33' E 135°25'5 4.8
2014-Oct-16 22:28N 34°33' E 135°18'0 0.0
2014-Oct-16 21:28N 34°33' E 135°18'0 0.0
2014-Oct-16 20:28N 34°33' E 135°18'0 0.0
2014-Oct-16 19:22N 34°33' E 135°18'0 0.0
2014-Oct-16 18:28N 34°33' E 135°18'0 0.0
2014-Oct-16 17:22N 34°33' E 135°18'0 0.0
2014-Oct-16 16:28N 34°33' E 135°18'0 0.0
2014-Oct-16 15:28N 34°33' E 135°18'0 0.0
2014-Oct-16 14:28N 34°33' E 135°18'0 0.1
2014-Oct-16 13:28N 34°33' E 135°19'0 0.0
2014-Oct-16 12:16N 34°33' E 135°19'0 0.1
2014-Oct-16 11:28N 34°33' E 135°18'0 0.0
2014-Oct-16 10:28N 34°33' E 135°18'0 0.0
2014-Oct-16 08:28N 34°33' E 135°18'0 0.0
2014-Oct-16 07:28N 34°33' E 135°18'3 3.6
2014-Oct-16 06:33N 34°36' E 135°19'5 5.1
2014-Oct-16 05:33N 34°35' E 135°25'0 0.1
2014-Oct-16 02:24N 34°34' E 135°26'1 1.0
2014-Oct-16 01:33N 34°35' E 135°25'2 2.0
2014-Oct-16 00:33N 34°35' E 135°23'0 0.0
2014-Oct-15 22:32N 34°35' E 135°23'0 0.1
2014-Oct-15 21:32N 34°35' E 135°23'0 0.0
2014-Oct-15 20:32N 34°35' E 135°23'0 0.0
2014-Oct-15 19:32N 34°35' E 135°23'0 0.0
2014-Oct-15 18:26N 34°35' E 135°23'0 0.0
2014-Oct-15 17:32N 34°35' E 135°23'0 0.0
2014-Oct-15 16:26N 34°35' E 135°23'0 0.0
2014-Oct-15 15:20N 34°35' E 135°23'0 0.0
2014-Oct-15 14:32N 34°35' E 135°23'0 0.0
2014-Oct-15 13:32N 34°35' E 135°23'0 0.0
2014-Oct-15 12:32N 34°35' E 135°23'0 0.0
2014-Oct-15 11:32N 34°35' E 135°23'0 0.0
2014-Oct-15 10:32N 34°35' E 135°23'0 0.0
2014-Oct-15 09:32N 34°35' E 135°23'5 5.0
2014-Oct-15 08:33N 34°32' E 135°18'1211.9
2014-Oct-15 07:33N 34°24' E 135°07'1211.1
2014-Oct-15 06:29N 34°15' E 134°59'  

Dump ship's entire track history